Time;durP1;ratioP1;P1;durP2;ratioP2;P2;SDS_P1;SDS_P2;PMS_P1;PMS_P2;Temp;Humidity;BMP_temperature;BMP_pressure;BME280_temperature;BME280_humidity;BME280_pressure;Samples;Min_cycle;Max_cycle;Signal;HPM_P1;HPM_P2
2023/07/25 00:00:55;;;;;;;5.10;2.00;;;20.20;99.90;;;;;;7388474;19;20159;-76
2023/07/25 00:03:21;;;;;;;3.22;2.10;;;20.20;99.90;;;;;;7388681;19;20134;-76
2023/07/25 00:05:46;;;;;;;2.40;1.98;;;20.30;99.90;;;;;;7388683;19;20226;-75
2023/07/25 00:08:12;;;;;;;2.65;1.65;;;20.30;99.90;;;;;;7387149;19;20143;-76
2023/07/25 00:10:38;;;;;;;2.72;2.05;;;20.30;99.90;;;;;;7389077;19;20126;-76
2023/07/25 00:13:04;;;;;;;1.85;1.75;;;20.30;99.90;;;;;;7388237;19;20153;-75
2023/07/25 00:15:29;;;;;;;2.70;1.85;;;20.20;99.90;;;;;;7387683;19;20446;-76
2023/07/25 00:17:56;;;;;;;2.85;1.90;;;20.10;99.90;;;;;;7386347;19;20146;-75
2023/07/25 00:20:22;;;;;;;4.00;1.58;;;19.90;99.90;;;;;;7387514;19;20142;-75
2023/07/25 00:22:48;;;;;;;2.63;1.75;;;20.00;99.90;;;;;;7389597;19;20134;-75
2023/07/25 00:25:14;;;;;;;2.75;2.05;;;20.00;99.90;;;;;;7387325;19;20154;-76
2023/07/25 00:27:39;;;;;;;2.20;1.88;;;20.00;99.90;;;;;;7384103;19;20143;-75
2023/07/25 00:30:06;;;;;;;3.35;1.67;;;20.10;99.90;;;;;;7387417;19;20142;-75
2023/07/25 00:32:35;;;;;;;2.47;1.80;;;20.20;99.90;;;;;;7388166;19;20287;-75
2023/07/25 00:35:01;;;;;;;3.33;2.00;;;20.20;99.90;;;;;;7386508;19;20222;-75
2023/07/25 00:37:29;;;;;;;2.45;1.90;;;19.70;99.90;;;;;;7386890;19;20150;-75
2023/07/25 00:39:55;;;;;;;3.17;2.05;;;19.70;99.90;;;;;;7384639;19;20154;-75
2023/07/25 00:42:21;;;;;;;1.92;1.70;;;19.70;99.90;;;;;;7386530;19;20218;-74
2023/07/25 00:44:46;;;;;;;2.55;1.92;;;19.50;99.90;;;;;;7386664;19;20705;-75
2023/07/25 00:47:12;;;;;;;4.88;2.28;;;19.70;99.90;;;;;;7385024;19;20134;-74
2023/07/25 00:49:41;;;;;;;2.58;2.00;;;19.90;99.90;;;;;;7386101;19;20138;-75
2023/07/25 00:52:08;;;;;;;3.08;2.17;;;19.80;99.90;;;;;;7379848;19;20126;-76
2023/07/25 00:54:38;;;;;;;3.03;2.08;;;19.70;99.90;;;;;;7388192;19;20154;-75
2023/07/25 00:57:04;;;;;;;2.45;1.65;;;19.80;99.90;;;;;;7385574;19;20166;-75
2023/07/25 00:59:30;;;;;;;3.15;2.17;;;19.70;99.90;;;;;;7385062;19;20158;-76
2023/07/25 01:01:56;;;;;;;2.88;2.13;;;19.70;99.90;;;;;;7389551;19;20629;-75
2023/07/25 01:04:21;;;;;;;2.72;2.03;;;19.90;99.90;;;;;;7386897;19;20139;-76
2023/07/25 01:06:48;;;;;;;3.28;2.08;;;20.00;99.90;;;;;;7385549;19;20625;-75
2023/07/25 01:09:14;;;;;;;2.88;1.80;;;19.90;99.90;;;;;;7387884;19;20147;-76
2023/07/25 01:11:40;;;;;;;2.40;2.00;;;19.60;99.90;;;;;;7386435;19;20145;-76
2023/07/25 01:14:06;;;;;;;2.40;1.75;;;19.70;99.90;;;;;;7386262;19;20154;-77
2023/07/25 01:16:34;;;;;;;2.38;1.70;;;19.70;99.90;;;;;;7385901;19;20642;-75
2023/07/25 01:19:00;;;;;;;2.97;1.92;;;19.50;99.90;;;;;;7379530;19;20138;-76
2023/07/25 01:21:26;;;;;;;2.08;1.80;;;19.50;99.90;;;;;;7387907;19;20226;-76
2023/07/25 01:23:52;;;;;;;2.72;1.77;;;19.40;99.90;;;;;;7387755;19;20149;-75
2023/07/25 01:26:18;;;;;;;3.65;2.05;;;19.40;99.90;;;;;;7384013;19;20558;-75
2023/07/25 01:28:44;;;;;;;2.33;1.90;;;19.40;99.90;;;;;;7380051;19;20201;-76
2023/07/25 01:31:10;;;;;;;3.72;1.90;;;19.20;99.90;;;;;;7385501;19;20190;-75
2023/07/25 01:33:36;;;;;;;2.00;1.60;;;19.00;99.90;;;;;;7386547;19;20586;-75
2023/07/25 01:36:02;;;;;;;2.33;1.92;;;19.00;99.90;;;;;;7387586;19;20134;-75
2023/07/25 01:38:28;;;;;;;1.90;1.70;;;19.20;99.90;;;;;;7385445;19;20243;-75
2023/07/25 01:40:53;;;;;;;2.20;1.73;;;19.20;99.90;;;;;;7384431;19;20138;-75
2023/07/25 01:43:19;;;;;;;2.35;1.63;;;19.50;99.90;;;;;;7385310;19;20147;-76
2023/07/25 01:45:45;;;;;;;2.03;1.80;;;19.60;99.90;;;;;;7385660;19;20157;-75
2023/07/25 01:48:11;;;;;;;3.53;1.60;;;19.70;99.90;;;;;;7383881;19;20207;-75
2023/07/25 01:50:36;;;;;;;2.47;1.75;;;19.90;99.90;;;;;;7385796;19;20158;-75
2023/07/25 01:53:02;;;;;;;3.20;1.75;;;19.90;99.90;;;;;;7384277;19;20472;-76
2023/07/25 01:55:28;;;;;;;1.85;1.45;;;19.90;99.90;;;;;;7386062;19;20139;-76
2023/07/25 01:57:53;;;;;;;2.58;1.98;;;19.90;99.90;;;;;;7384174;19;20876;-76
2023/07/25 02:00:19;;;;;;;2.97;1.70;;;19.90;99.90;;;;;;7385469;19;20153;-76
2023/07/25 02:02:45;;;;;;;4.40;2.58;;;19.90;99.90;;;;;;7385168;19;20496;-75
2023/07/25 02:05:10;;;;;;;2.25;1.90;;;19.90;99.90;;;;;;7384624;19;20165;-74
2023/07/25 02:07:36;;;;;;;2.72;1.27;;;19.90;99.90;;;;;;7380331;19;20135;-75
2023/07/25 02:10:02;;;;;;;2.53;1.80;;;20.00;99.90;;;;;;7378537;19;20166;-75
2023/07/25 02:12:29;;;;;;;3.78;1.48;;;19.90;99.90;;;;;;7386320;19;20159;-75
2023/07/25 02:14:55;;;;;;;2.28;1.58;;;20.00;99.90;;;;;;7385011;19;20158;-75
2023/07/25 02:17:21;;;;;;;1.83;1.40;;;19.80;99.90;;;;;;7385358;19;20153;-75
2023/07/25 02:19:47;;;;;;;2.83;1.80;;;19.60;99.90;;;;;;7382988;19;20150;-75
2023/07/25 02:22:12;;;;;;;1.92;1.73;;;19.50;99.90;;;;;;7375218;19;20161;-75
2023/07/25 02:24:38;;;;;;;3.55;1.77;;;19.40;99.90;;;;;;7384110;19;20169;-76
2023/07/25 02:27:04;;;;;;;2.88;1.85;;;19.50;99.90;;;;;;7378666;19;20694;-76
2023/07/25 02:29:30;;;;;;;2.80;1.95;;;19.50;99.90;;;;;;7379459;19;20247;-75
2023/07/25 02:31:56;;;;;;;2.17;1.98;;;19.40;99.90;;;;;;7385637;19;20156;-75
2023/07/25 02:34:21;;;;;;;2.63;1.95;;;19.60;99.90;;;;;;7383255;19;20609;-75
2023/07/25 02:36:47;;;;;;;3.47;1.58;;;19.70;99.90;;;;;;7384041;19;20158;-74
2023/07/25 02:39:15;;;;;;;2.30;1.67;;;19.70;99.90;;;;;;7377502;19;20190;-75
2023/07/25 02:41:42;;;;;;;5.03;2.35;;;19.80;99.90;;;;;;7385781;19;20139;-75
2023/07/25 02:44:08;;;;;;;2.85;2.13;;;19.40;99.90;;;;;;7383588;19;20510;-75
2023/07/25 02:46:34;;;;;;;2.70;1.95;;;19.20;99.90;;;;;;7385037;19;20130;-76
2023/07/25 02:49:00;;;;;;;2.67;2.00;;;19.10;99.90;;;;;;7381996;19;20142;-75
2023/07/25 02:51:25;;;;;;;2.70;2.13;;;19.10;99.90;;;;;;7384307;19;20127;-76
2023/07/25 02:53:51;;;;;;;2.03;1.80;;;19.20;99.90;;;;;;7381132;19;20159;-76
2023/07/25 02:56:17;;;;;;;2.88;1.88;;;19.40;99.90;;;;;;7382838;19;20139;-75
2023/07/25 02:58:42;;;;;;;2.22;1.85;;;19.50;99.90;;;;;;7383592;19;20202;-76
2023/07/25 03:01:08;;;;;;;2.22;1.77;;;19.50;99.90;;;;;;7382707;19;20130;-76
2023/07/25 03:03:34;;;;;;;3.22;2.35;;;19.60;99.90;;;;;;7384435;19;20131;-75
2023/07/25 03:05:59;;;;;;;2.40;2.00;;;19.60;99.90;;;;;;7383685;19;20456;-76
2023/07/25 03:08:25;;;;;;;3.45;2.33;;;19.70;99.90;;;;;;7382965;19;20147;-76
2023/07/25 03:10:51;;;;;;;2.80;2.15;;;19.60;99.90;;;;;;7383558;19;20130;-75
2023/07/25 03:13:17;;;;;;;2.78;2.25;;;18.90;99.90;;;;;;7383680;19;20158;-75
2023/07/25 03:15:43;;;;;;;4.72;2.17;;;18.80;99.90;;;;;;7382386;19;20131;-76
2023/07/25 03:18:08;;;;;;;3.63;2.08;;;19.20;99.90;;;;;;7382503;19;20201;-76
2023/07/25 03:20:34;;;;;;;3.42;2.10;;;19.40;99.90;;;;;;7387193;19;20131;-76
2023/07/25 03:23:00;;;;;;;3.10;2.15;;;19.50;99.90;;;;;;7389742;19;20202;-75
2023/07/25 03:25:25;;;;;;;2.30;1.95;;;19.50;99.90;;;;;;7388030;19;20195;-75
2023/07/25 03:27:51;;;;;;;2.95;1.70;;;19.70;99.90;;;;;;7386896;19;20147;-75
2023/07/25 03:30:18;;;;;;;3.25;1.80;;;19.70;99.90;;;;;;7387736;19;20138;-75
2023/07/25 03:32:43;;;;;;;2.47;2.03;;;19.60;99.90;;;;;;7390032;19;20139;-74
2023/07/25 03:35:09;;;;;;;3.55;2.17;;;19.60;99.90;;;;;;7387084;19;20135;-76
2023/07/25 03:37:35;;;;;;;4.15;1.95;;;19.70;99.90;;;;;;7392538;19;20180;-76
2023/07/25 03:40:01;;;;;;;4.35;1.90;;;19.60;99.90;;;;;;7388197;19;20730;-76
2023/07/25 03:42:27;;;;;;;3.42;2.00;;;19.60;99.90;;;;;;7389269;19;20151;-76
2023/07/25 03:44:52;;;;;;;4.78;2.10;;;19.60;99.90;;;;;;7389804;19;20122;-76
2023/07/25 03:47:18;;;;;;;3.03;1.90;;;19.50;99.90;;;;;;7389935;19;20135;-75
2023/07/25 03:49:45;;;;;;;2.10;1.80;;;19.70;99.90;;;;;;7387628;19;20305;-75
2023/07/25 03:52:11;;;;;;;4.50;1.83;;;19.80;99.90;;;;;;7389291;19;20157;-75
2023/07/25 03:54:37;;;;;;;3.28;2.00;;;19.80;99.90;;;;;;7387696;19;20165;-79
2023/07/25 03:57:04;;;;;;;5.35;3.70;;;19.80;99.90;;;;;;7391676;19;20143;-77
2023/07/25 03:59:30;;;;;;;3.83;2.38;;;19.80;99.90;;;;;;7386369;19;20497;-79
2023/07/25 04:01:56;;;;;;;3.22;1.80;;;19.70;99.90;;;;;;7391820;19;20598;-79
2023/07/25 04:04:21;;;;;;;3.35;1.60;;;19.60;99.90;;;;;;7390291;19;20135;-78
2023/07/25 04:06:47;;;;;;;2.25;1.60;;;19.70;99.90;;;;;;7387600;19;20142;-78
2023/07/25 04:09:13;;;;;;;4.93;1.75;;;19.80;99.90;;;;;;7386653;19;20168;-79
2023/07/25 04:11:38;;;;;;;2.03;1.80;;;19.80;99.90;;;;;;7388074;19;20146;-77
2023/07/25 04:14:04;;;;;;;3.15;1.33;;;19.80;99.90;;;;;;7387893;19;20138;-77
2023/07/25 04:16:30;;;;;;;2.78;2.03;;;19.80;99.90;;;;;;7388133;19;20595;-77
2023/07/25 04:18:56;;;;;;;3.33;1.80;;;19.70;99.90;;;;;;7387684;19;21438;-77
2023/07/25 04:21:21;;;;;;;2.28;1.88;;;19.60;99.90;;;;;;7389144;19;20130;-77
2023/07/25 04:23:47;;;;;;;2.67;1.58;;;19.70;99.90;;;;;;7387141;19;20214;-79
2023/07/25 04:26:13;;;;;;;1.90;1.45;;;19.30;99.90;;;;;;7385939;19;20154;-79
2023/07/25 04:28:39;;;;;;;2.45;1.73;;;18.90;99.90;;;;;;7386552;19;20159;-78
2023/07/25 04:31:04;;;;;;;2.08;1.55;;;18.90;99.90;;;;;;7385608;19;20133;-77
2023/07/25 04:33:30;;;;;;;2.50;1.60;;;19.10;99.90;;;;;;7387763;19;20210;-78
2023/07/25 04:35:56;;;;;;;3.35;1.60;;;19.50;99.90;;;;;;7387717;19;20198;-77
2023/07/25 04:38:21;;;;;;;2.88;2.00;;;19.40;99.90;;;;;;7387288;19;20139;-79
2023/07/25 04:40:47;;;;;;;3.83;1.60;;;19.60;99.90;;;;;;7387640;19;20145;-77
2023/07/25 04:43:13;;;;;;;1.60;1.42;;;19.70;99.90;;;;;;7388062;19;20150;-76
2023/07/25 04:45:39;;;;;;;2.97;1.50;;;19.60;99.90;;;;;;7386943;19;20131;-79
2023/07/25 04:48:05;;;;;;;2.60;1.77;;;19.60;99.90;;;;;;7383007;19;20142;-78
2023/07/25 04:50:31;;;;;;;3.90;1.65;;;19.80;99.90;;;;;;7387376;19;20130;-77
2023/07/25 04:52:56;;;;;;;2.13;1.70;;;19.90;99.90;;;;;;7387217;19;20135;-78
2023/07/25 04:55:22;;;;;;;1.90;1.60;;;19.90;99.90;;;;;;7387301;19;20134;-78
2023/07/25 04:57:51;;;;;;;3.45;2.05;;;19.90;99.90;;;;;;7387454;19;20201;-77
2023/07/25 05:00:17;;;;;;;2.28;1.60;;;19.70;99.90;;;;;;7386762;19;20146;-77
2023/07/25 05:02:43;;;;;;;2.42;1.80;;;19.70;99.90;;;;;;7385124;19;20126;-77
2023/07/25 05:05:09;;;;;;;2.38;1.55;;;19.80;99.90;;;;;;7386883;19;20244;-77
2023/07/25 05:07:34;;;;;;;3.88;1.60;;;19.80;99.90;;;;;;7385644;19;20598;-78
2023/07/25 05:10:00;;;;;;;1.90;1.42;;;19.90;99.90;;;;;;7386872;19;20134;-77
2023/07/25 05:12:26;;;;;;;2.20;1.50;;;19.80;99.90;;;;;;7385515;19;20536;-78
2023/07/25 05:14:52;;;;;;;4.78;1.88;;;19.70;99.90;;;;;;7387555;19;20134;-78
2023/07/25 05:17:17;;;;;;;2.97;2.05;;;19.70;99.90;;;;;;7388162;19;20602;-76
2023/07/25 05:19:43;;;;;;;2.85;1.77;;;19.80;99.90;;;;;;7386723;19;20149;-79
2023/07/25 05:22:09;;;;;;;2.75;1.92;;;19.90;99.90;;;;;;7388083;19;20546;-77
2023/07/25 05:24:35;;;;;;;2.67;1.90;;;19.90;99.90;;;;;;7387574;19;20150;-77
2023/07/25 05:27:01;;;;;;;2.40;1.90;;;19.90;99.90;;;;;;7382537;19;20721;-77
2023/07/25 05:29:26;;;;;;;2.38;1.80;;;20.00;99.90;;;;;;7384816;19;20152;-77
2023/07/25 05:31:52;;;;;;;2.72;1.85;;;20.00;99.90;;;;;;7385686;19;20149;-77
2023/07/25 05:34:18;;;;;;;3.70;1.73;;;20.10;99.90;;;;;;7385905;19;20144;-79
2023/07/25 05:36:44;;;;;;;4.28;1.90;;;20.00;99.90;;;;;;7384982;19;20134;-79
2023/07/25 05:39:10;;;;;;;2.70;1.98;;;20.00;99.90;;;;;;7384385;19;20198;-78
2023/07/25 05:41:37;;;;;;;3.67;2.00;;;20.10;99.90;;;;;;7385926;19;20144;-77
2023/07/25 05:44:03;;;;;;;2.08;1.88;;;20.00;99.90;;;;;;7380215;19;20530;-77
2023/07/25 05:46:29;;;;;;;2.30;1.77;;;20.00;99.90;;;;;;7386090;19;20134;-76
2023/07/25 05:48:55;;;;;;;2.20;1.88;;;20.00;99.90;;;;;;7383853;19;20174;-76
2023/07/25 05:51:21;;;;;;;2.75;1.90;;;20.10;99.90;;;;;;7385284;19;20138;-76
2023/07/25 05:53:47;;;;;;;3.38;2.20;;;20.10;99.90;;;;;;7384289;19;20406;-76
2023/07/25 05:56:12;;;;;;;6.80;3.03;;;20.20;99.90;;;;;;7383293;19;20176;-80
2023/07/25 05:58:40;;;;;;;7.10;3.70;;;20.20;99.90;;;;;;7384037;19;20147;-80
2023/07/25 06:01:06;;;;;;;7.07;3.50;;;20.10;99.90;;;;;;7385963;19;20529;-80
2023/07/25 06:03:31;;;;;;;5.80;3.20;;;19.90;99.90;;;;;;7385928;19;20130;-80
2023/07/25 06:05:57;;;;;;;6.40;2.60;;;19.80;99.90;;;;;;7384492;19;20154;-80
2023/07/25 06:08:23;;;;;;;4.13;2.88;;;19.70;99.90;;;;;;7385724;19;20155;-80
2023/07/25 06:10:49;;;;;;;3.92;2.65;;;19.60;99.90;;;;;;7385234;19;20134;-80
2023/07/25 06:13:14;;;;;;;5.88;3.25;;;19.50;99.90;;;;;;7386338;19;20210;-80
2023/07/25 06:15:40;;;;;;;4.50;3.13;;;19.30;99.90;;;;;;7385246;19;20131;-81
2023/07/25 06:18:06;;;;;;;3.20;2.60;;;19.30;99.90;;;;;;7384639;19;20126;-79
2023/07/25 06:20:32;;;;;;;3.42;2.22;;;19.30;99.90;;;;;;7386337;19;20146;-81
2023/07/25 06:22:59;;;;;;;2.90;2.00;;;19.40;99.90;;;;;;7384147;19;20139;-83
2023/07/25 06:25:26;;;;;;;4.40;2.40;;;19.40;99.90;;;;;;7383565;19;20173;-83
2023/07/25 06:27:52;;;;;;;5.90;2.47;;;19.50;99.90;;;;;;7380979;19;20635;-82
2023/07/25 06:30:18;;;;;;;4.68;2.35;;;19.50;99.90;;;;;;7383235;19;20216;-82
2023/07/25 06:32:43;;;;;;;6.75;2.45;;;19.30;99.90;;;;;;7386423;19;20149;-83
2023/07/25 06:35:10;;;;;;;4.80;2.55;;;19.50;99.90;;;;;;7385515;19;20131;-81
2023/07/25 06:37:37;;;;;;;3.97;2.60;;;19.60;99.90;;;;;;7385065;19;20141;-83
2023/07/25 06:40:04;;;;;;;4.93;3.03;;;19.60;99.90;;;;;;7384994;19;20134;-82
2023/07/25 06:42:30;;;;;;;3.17;2.40;;;19.60;99.90;;;;;;7386127;19;20149;-81
2023/07/25 06:44:56;;;;;;;4.95;3.05;;;19.60;99.90;;;;;;7391493;19;20160;-80
2023/07/25 06:47:22;;;;;;;4.95;2.65;;;19.70;99.90;;;;;;7389617;19;20130;-83
2023/07/25 06:49:48;;;;;;;5.90;2.72;;;19.70;99.90;;;;;;7392998;19;20134;-81
2023/07/25 06:52:14;;;;;;;9.10;4.03;;;19.80;99.90;;;;;;7389774;19;20598;-82
2023/07/25 06:54:43;;;;;;;8.10;3.25;;;19.80;99.90;;;;;;7393691;19;20217;-83
2023/07/25 06:57:09;;;;;;;7.30;3.13;;;19.80;99.90;;;;;;7399681;19;20150;-80
2023/07/25 06:59:35;;;;;;;8.02;3.97;;;19.80;99.90;;;;;;7394455;19;20146;-80
2023/07/25 07:02:01;;;;;;;8.50;3.03;;;19.70;99.90;;;;;;7397231;19;20149;-80
2023/07/25 07:04:27;;;;;;;5.30;3.38;;;19.60;99.90;;;;;;7398000;19;20154;-82
2023/07/25 07:06:53;;;;;;;6.30;3.08;;;19.60;99.90;;;;;;7392328;19;20417;-82
2023/07/25 07:09:18;;;;;;;5.95;2.88;;;19.60;99.90;;;;;;7390847;19;20473;-83
2023/07/25 07:11:44;;;;;;;5.95;2.83;;;19.50;99.90;;;;;;7391291;19;20134;-84
2023/07/25 07:14:10;;;;;;;4.70;3.22;;;19.50;99.90;;;;;;7392621;19;20165;-82
2023/07/25 07:16:36;;;;;;;4.30;2.78;;;19.60;99.90;;;;;;7390923;19;20146;-84
2023/07/25 07:19:02;;;;;;;4.32;2.95;;;19.70;99.90;;;;;;7388687;19;20130;-82
2023/07/25 07:21:28;;;;;;;5.82;2.72;;;19.70;99.90;;;;;;7392077;19;20130;-81
2023/07/25 07:23:53;;;;;;;4.63;2.90;;;19.60;99.90;;;;;;7390592;19;20150;-81
2023/07/25 07:26:19;;;;;;;6.07;3.78;;;19.70;99.90;;;;;;7387472;19;20771;-84
2023/07/25 07:28:45;;;;;;;5.22;2.95;;;19.80;99.90;;;;;;7391399;19;20135;-84
2023/07/25 07:31:12;;;;;;;4.00;2.38;;;19.80;99.90;;;;;;7391788;19;20150;-82
2023/07/25 07:33:38;;;;;;;7.35;3.88;;;19.70;99.90;;;;;;7388599;19;21053;-84
2023/07/25 07:36:05;;;;;;;3.90;2.85;;;19.70;99.90;;;;;;7389372;19;20138;-83
2023/07/25 07:38:31;;;;;;;3.90;2.67;;;19.70;99.90;;;;;;7388171;19;20174;-83
2023/07/25 07:40:57;;;;;;;4.30;2.70;;;19.70;99.90;;;;;;7389157;19;20127;-85
2023/07/25 07:43:23;;;;;;;5.13;2.80;;;19.80;99.90;;;;;;7389489;19;20544;-84
2023/07/25 07:45:49;;;;;;;4.50;2.88;;;19.90;99.90;;;;;;7387601;19;20158;-84
2023/07/25 07:48:15;;;;;;;4.75;3.10;;;19.90;99.90;;;;;;7391986;19;20161;-87
2023/07/25 07:50:43;;;;;;;4.20;2.40;;;20.10;99.90;;;;;;7396859;19;20150;-85
2023/07/25 07:53:09;;;;;;;3.60;2.30;;;20.40;99.90;;;;;;7397535;19;20143;-85
2023/07/25 07:55:35;;;;;;;2.67;1.90;;;21.20;99.90;;;;;;7388444;19;20138;-82
2023/07/25 07:58:02;;;;;;;3.63;1.60;;;22.50;99.90;;;;;;7387815;19;20135;-84
2023/07/25 08:00:28;;;;;;;2.10;1.90;;;23.50;99.90;;;;;;7389140;19;20146;-84
2023/07/25 08:02:53;;;;;;;2.72;1.88;;;23.70;99.90;;;;;;7389686;19;20605;-83
2023/07/25 08:05:19;;;;;;;2.10;1.67;;;23.30;99.90;;;;;;7387428;19;20212;-84
2023/07/25 08:07:45;;;;;;;2.88;1.75;;;22.80;99.90;;;;;;7384700;19;20131;-80
2023/07/25 08:10:11;;;;;;;1.90;1.38;;;22.60;99.90;;;;;;7391087;19;20138;-81
2023/07/25 08:12:37;;;;;;;3.38;1.73;;;22.70;99.90;;;;;;7393991;19;20169;-81
2023/07/25 08:15:04;;;;;;;3.88;2.78;;;22.80;99.90;;;;;;7388846;19;20146;-79
2023/07/25 08:17:30;;;;;;;5.20;2.47;;;23.00;99.90;;;;;;7389950;19;20141;-79
2023/07/25 08:19:55;;;;;;;3.67;2.33;;;22.90;99.90;;;;;;7386866;19;20198;-79
2023/07/25 08:22:21;;;;;;;3.42;2.10;;;22.60;99.90;;;;;;7390141;19;20134;-78
2023/07/25 08:24:47;;;;;;;3.03;2.00;;;22.10;99.90;;;;;;7387668;19;20138;-78
2023/07/25 08:27:13;;;;;;;3.25;1.77;;;21.90;99.90;;;;;;7389702;19;20206;-78
2023/07/25 08:29:48;;;;;;;4.95;2.60;;;21.70;99.90;;;;;;7386562;19;20146;-78
2023/07/25 08:32:14;;;;;;;6.82;3.40;;;21.50;99.90;;;;;;7389276;19;20238;-78
2023/07/25 08:34:40;;;;;;;2.95;2.33;;;21.50;99.90;;;;;;7388479;19;20620;-79
2023/07/25 08:37:06;;;;;;;4.25;2.28;;;21.40;99.90;;;;;;7387988;19;20130;-79
2023/07/25 08:39:33;;;;;;;3.33;2.00;;;21.30;99.90;;;;;;7386310;19;20149;-78
2023/07/25 08:42:02;;;;;;;4.18;1.88;;;21.20;99.90;;;;;;7389279;19;20138;-80
2023/07/25 08:44:28;;;;;;;3.53;2.17;;;21.20;99.90;;;;;;7390425;19;20137;-80
2023/07/25 08:46:56;;;;;;;6.85;3.00;;;21.40;99.90;;;;;;7388060;19;20226;-79
2023/07/25 08:49:24;;;;;;;4.68;2.15;;;21.70;99.90;;;;;;7384559;19;20138;-77
2023/07/25 08:51:54;;;;;;;6.05;1.90;;;21.90;99.90;;;;;;7388446;19;20148;-78
2023/07/25 08:54:32;;;;;;;2.83;1.67;;;21.90;99.90;;;;;;7389842;19;20464;-77
2023/07/25 08:56:58;;;;;;;2.85;1.80;;;22.00;99.90;;;;;;7386801;19;20142;-78
2023/07/25 08:59:25;;;;;;;2.03;1.60;;;22.10;99.90;;;;;;7385402;19;20582;-78
2023/07/25 09:01:57;;;;;;;4.03;2.65;;;22.20;99.90;;;;;;7387174;19;20483;-80
2023/07/25 09:04:25;;;;;;;1.83;1.45;;;22.30;99.90;;;;;;7387952;19;20149;-78
2023/07/25 09:06:52;;;;;;;3.92;1.70;;;22.30;99.90;;;;;;7385271;19;20134;-77
2023/07/25 09:09:18;;;;;;;3.08;2.35;;;22.20;99.90;;;;;;7384737;19;20218;-76
2023/07/25 09:11:44;;;;;;;2.35;1.73;;;22.00;99.90;;;;;;7387051;19;20155;-77
2023/07/25 09:14:13;;;;;;;2.38;1.50;;;21.90;99.90;;;;;;7389928;19;20130;-77
2023/07/25 09:16:39;;;;;;;1.73;1.60;;;21.70;99.90;;;;;;7387043;19;20618;-77
2023/07/25 09:19:05;;;;;;;2.85;1.67;;;21.60;99.90;;;;;;7384231;19;20234;-78
2023/07/25 09:21:31;;;;;;;6.22;2.60;;;21.30;99.90;;;;;;7386395;19;20131;-78
2023/07/25 09:23:59;;;;;;;2.45;1.67;;;21.30;99.90;;;;;;7388046;19;20155;-78
2023/07/25 09:26:31;;;;;;;2.08;1.45;;;21.40;99.90;;;;;;7384744;19;20181;-80
2023/07/25 09:28:58;;;;;;;3.60;1.63;;;21.50;99.90;;;;;;7385486;19;20145;-80
2023/07/25 09:31:25;;;;;;;3.00;1.58;;;21.60;99.90;;;;;;7388946;19;20134;-80
2023/07/25 09:33:53;;;;;;;3.85;1.52;;;21.70;99.90;;;;;;7385726;19;20626;-79
2023/07/25 09:36:20;;;;;;;2.20;1.25;;;22.00;99.90;;;;;;7386870;19;20155;-81
2023/07/25 09:38:55;;;;;;;2.28;1.30;;;22.10;99.90;;;;;;7382090;19;20139;-81
2023/07/25 09:41:22;;;;;;;1.85;1.20;;;22.20;99.90;;;;;;7381272;19;20169;-79
2023/07/25 09:43:50;;;;;;;1.50;1.17;;;22.50;99.90;;;;;;7383054;19;20633;-79
2023/07/25 09:46:16;;;;;;;4.03;1.40;;;22.60;99.90;;;;;;7386383;19;20155;-80
2023/07/25 09:48:50;;;;;;;2.60;1.52;;;22.80;99.90;;;;;;7384673;19;20138;-79
2023/07/25 09:51:16;;;;;;;2.20;1.40;;;22.70;99.90;;;;;;7386659;19;20142;-81
2023/07/25 09:53:50;;;;;;;2.10;1.20;;;22.70;99.90;;;;;;7386432;19;20487;-81
2023/07/25 09:56:16;;;;;;;1.73;1.60;;;22.60;99.90;;;;;;7387062;19;20173;-81
2023/07/25 09:58:41;;;;;;;2.00;1.25;;;22.60;99.90;;;;;;7384886;19;20337;-79
2023/07/25 10:01:10;;;;;;;1.90;1.40;;;22.90;99.90;;;;;;7379849;19;20843;-77
2023/07/25 10:03:41;;;;;;;2.28;1.27;;;22.90;99.90;;;;;;7380393;19;20130;-77
2023/07/25 10:06:18;;;;;;;2.53;1.55;;;22.90;99.90;;;;;;7386391;19;20139;-77
2023/07/25 10:08:55;;;;;;;1.52;1.30;;;23.00;99.90;;;;;;7380087;19;20580;-77
2023/07/25 10:11:22;;;;;;;2.08;1.23;;;23.00;99.90;;;;;;7386491;19;20469;-77
2023/07/25 10:14:01;;;;;;;;;;;;;;;;;;;;;
2023/07/25 10:16:53;;;;;;;1.67;1.27;;;22.80;99.90;;;;;;7385328;19;20149;-79
2023/07/25 10:19:19;;;;;;;2.20;1.17;;;22.90;99.90;;;;;;7381891;19;20161;-78
2023/07/25 10:22:03;;;;;;;2.55;1.30;;;23.10;99.90;;;;;;7384140;19;20222;-78
2023/07/25 10:24:36;;;;;;;2.28;1.50;;;23.30;99.90;;;;;;7384091;19;20161;-78
2023/07/25 10:27:18;;;;;;;2.28;1.27;;;23.30;99.90;;;;;;7380679;19;20166;-79
2023/07/25 10:29:49;;;;;;;2.03;1.30;;;23.10;99.90;;;;;;7383265;19;20137;-77
2023/07/25 10:32:16;;;;;;;1.67;1.33;;;23.30;99.90;;;;;;7385901;19;20126;-78
2023/07/25 10:34:43;;;;;;;2.42;1.23;;;23.30;99.90;;;;;;7387074;19;20135;-77
2023/07/25 10:37:27;;;;;;;1.45;1.00;;;23.30;99.90;;;;;;7385471;19;20148;-77
2023/07/25 10:40:16;;;;;;;3.00;1.48;;;23.20;99.90;;;;;;7382300;19;20620;-76
2023/07/25 10:42:45;;;;;;;1.63;1.30;;;23.40;99.90;;;;;;7384182;19;20803;-76
2023/07/25 10:45:20;;;;;;;3.97;1.50;;;23.00;99.90;;;;;;7386536;19;20979;-77
2023/07/25 10:47:48;;;;;;;2.92;1.27;;;23.00;99.90;;;;;;7381728;19;20153;-81
2023/07/25 10:50:25;;;;;;;1.23;0.82;;;22.70;99.90;;;;;;7383802;19;20130;-80
2023/07/25 10:52:51;;;;;;;1.50;1.02;;;22.60;99.90;;;;;;7390165;19;20130;-77
2023/07/25 10:55:16;;;;;;;4.88;2.65;;;22.60;99.90;;;;;;7390316;19;20963;-77
2023/07/25 10:58:09;;;;;;;2.83;1.92;;;22.40;99.90;;;;;;7389989;19;20137;-76
2023/07/25 11:00:38;;;;;;;1.88;1.15;;;22.20;99.90;;;;;;7390897;19;20139;-77
2023/07/25 11:03:36;;;;;;;2.88;1.67;;;22.00;99.90;;;;;;7389918;19;20147;-77
2023/07/25 11:06:07;;;;;;;3.05;1.50;;;22.00;99.90;;;;;;7389469;19;20534;-77
2023/07/25 11:08:34;;;;;;;1.77;1.20;;;21.80;99.90;;;;;;7389568;19;20127;-77
2023/07/25 11:11:05;;;;;;;2.00;1.20;;;21.70;99.90;;;;;;7393729;19;20138;-77
2023/07/25 11:13:33;;;;;;;1.40;1.20;;;21.70;99.90;;;;;;7383119;19;20131;-78
2023/07/25 11:16:01;;;;;;;2.03;1.30;;;21.70;99.90;;;;;;7383771;19;20147;-76
2023/07/25 11:18:30;;;;;;;1.95;1.10;;;22.00;99.90;;;;;;7384245;19;20459;-77
2023/07/25 11:21:13;;;;;;;3.05;1.10;;;22.20;99.90;;;;;;7384482;19;20629;-77
2023/07/25 11:23:39;;;;;;;2.90;1.27;;;22.60;99.90;;;;;;7383464;19;20150;-77
2023/07/25 11:26:08;;;;;;;4.63;1.15;;;23.10;99.90;;;;;;7381612;19;20178;-77
2023/07/25 11:28:37;;;;;;;1.77;1.02;;;23.20;99.90;;;;;;7384769;19;20833;-76
2023/07/25 11:31:03;;;;;;;2.17;1.50;;;23.10;99.90;;;;;;7383928;19;20146;-78
2023/07/25 11:33:37;;;;;;;1.38;1.10;;;23.10;99.90;;;;;;7387029;19;20154;-78
2023/07/25 11:36:02;;;;;;;3.42;1.63;;;23.10;99.90;;;;;;7382582;19;20542;-77
2023/07/25 11:38:29;;;;;;;3.75;2.38;;;23.10;99.90;;;;;;7383538;19;20198;-77
2023/07/25 11:40:55;;;;;;;2.95;2.00;;;23.10;99.90;;;;;;7386109;19;20150;-78
2023/07/25 11:43:22;;;;;;;2.47;1.80;;;23.30;99.90;;;;;;7388883;19;20169;-76
2023/07/25 11:45:48;;;;;;;4.32;1.80;;;23.40;99.90;;;;;;7389188;19;20640;-78
2023/07/25 11:48:18;;;;;;;2.70;1.27;;;23.30;99.90;;;;;;7386827;19;20150;-77
2023/07/25 11:50:48;;;;;;;1.65;1.10;;;23.10;99.90;;;;;;7389732;19;20157;-75
2023/07/25 11:53:16;;;;;;;2.58;1.20;;;23.00;99.90;;;;;;7389379;19;20233;-78
2023/07/25 11:55:42;;;;;;;2.63;1.10;;;23.20;99.90;;;;;;7389226;19;20194;-76
2023/07/25 11:58:08;;;;;;;1.23;0.80;;;23.40;99.90;;;;;;7388727;19;20737;-77
2023/07/25 12:00:41;;;;;;;1.33;0.65;;;23.60;99.90;;;;;;7388603;19;20230;-76
2023/07/25 12:03:21;;;;;;;1.50;0.90;;;23.40;99.90;;;;;;7388009;19;20154;-77
2023/07/25 12:05:59;;;;;;;1.90;1.50;;;23.60;99.90;;;;;;7389526;19;20147;-77
2023/07/25 12:08:32;;;;;;;5.40;1.48;;;23.50;99.90;;;;;;7387074;19;20651;-77
2023/07/25 12:11:07;;;;;;;1.20;0.90;;;23.50;99.90;;;;;;7390963;19;20146;-77
2023/07/25 12:13:48;;;;;;;1.08;0.60;;;22.80;99.90;;;;;;7388648;19;20165;-76
2023/07/25 12:16:27;;;;;;;1.50;0.88;;;22.30;99.90;;;;;;7388188;19;20500;-78
2023/07/25 12:18:56;;;;;;;1.90;1.30;;;22.20;99.90;;;;;;7389860;19;20142;-76
2023/07/25 12:21:32;;;;;;;1.20;0.60;;;22.10;99.90;;;;;;7389512;19;20142;-76
2023/07/25 12:24:00;;;;;;;2.55;1.02;;;21.70;99.90;;;;;;7390074;19;20150;-77
2023/07/25 12:26:27;;;;;;;1.65;0.80;;;21.40;99.90;;;;;;7386961;19;20622;-75
2023/07/25 12:28:54;;;;;;;2.13;1.08;;;21.30;99.90;;;;;;7389636;19;20206;-75
2023/07/25 12:31:20;;;;;;;2.53;1.25;;;21.20;99.90;;;;;;7389415;19;20126;-78
2023/07/25 12:33:48;;;;;;;1.85;1.00;;;21.00;99.90;;;;;;7387840;19;20164;-77
2023/07/25 12:36:18;;;;;;;1.10;0.65;;;20.90;99.90;;;;;;7389586;19;20135;-77
2023/07/25 12:38:44;;;;;;;7.55;4.93;;;20.80;99.90;;;;;;7388945;19;20725;-78
2023/07/25 12:41:10;;;;;;;1.05;0.95;;;20.70;99.90;;;;;;7391132;19;20153;-74
2023/07/25 12:43:36;;;;;;;0.75;0.70;;;20.60;99.90;;;;;;7395836;19;20126;-78
2023/07/25 12:46:02;;;;;;;2.80;1.23;;;20.80;99.90;;;;;;7390310;19;20130;-76
2023/07/25 12:48:28;;;;;;;1.75;0.90;;;20.90;99.90;;;;;;7387110;19;20127;-78